Latest Weather Observations for Gannett Cay

IDQ60801

Issued at 5:32 pm EST Friday 30 January 2015 (issued every 30 minutes, with the page automatically refreshed every 10 minutes)

About weather observations | Map of weather stations | Latest weather observations for QLD | Other Formats
Station Details ID: 200831 Name: GANNET CAY Lat: -21.98 Lon: 152.47 Height: 2.3 m
Data from the previous 72 hours. | See also: Recent months for locations in Queensland
Date/Time
EST
Temp
°C
App
Temp
°C
Dew
Point
Rel
Hum
%
Delta-T
°C
Wind Press
QNH
hPa
Press
MSL
hPa
Rain
since 9 am
mm
Dir
 
Spd
km/h
Gust
km/h
Spd
kts
Gust
kts
30/05:30pm 27.4 - - - - SE 39 43 21 23 1005.3 - -
30/05:29pm 27.6 - - - - SE 37 41 20 22 1005.2 1005.4 -
30/05:00pm 27.3 - - - - SE 37 43 20 23 1005.1 - -
30/04:30pm 27.6 - - - - SSE 37 43 20 23 1005.0 - -
30/04:29pm 27.6 - - - - SSE 37 - 20 - - 1005.2 -
30/04:00pm 27.6 - - - - SSE 35 43 19 23 1004.9 - -
30/03:30pm 27.7 - - - - SE 35 41 19 22 1004.8 - -
30/03:29pm 27.8 - - - - SE 35 - 19 - - 1005.0 -
30/03:00pm 27.7 - - - - SSE 37 43 20 23 1004.8 - -
30/02:30pm 27.8 - - - - SSE 39 43 21 23 1004.9 - -
30/02:29pm 27.8 - - - - SSE 39 - 21 - - 1005.1 -
30/02:00pm 27.7 - - - - SSE 37 43 20 23 1005.0 - -
30/01:30pm 27.9 - - - - SSE 37 41 20 22 1005.2 - -
30/01:29pm 28.1 - - - - SSE 37 - 20 - - 1005.4 -
30/01:00pm 28.0 - - - - SE 37 43 20 23 1005.3 - -
30/12:30pm 28.1 - - - - SE 35 41 19 22 1005.6 - -
30/12:29pm 27.9 - - - - SE 35 - 19 - - 1005.8 -
30/12:00pm 27.9 - - - - SE 35 43 19 23 1005.8 - -
30/11:30am 27.9 - - - - SE 33 39 18 21 1006.0 - -
30/11:29am 28.0 - - - - SE 33 - 18 - - 1006.3 -
30/11:00am 27.7 - - - - SE 35 41 19 22 1006.2 - -
30/10:30am 25.9 - - - - SSE 20 28 11 15 1006.7 - -
30/10:29am 25.9 - - - - SSE 20 - 11 - - 1006.9 -
30/10:00am 26.9 - - - - ESE 35 39 19 21 1006.6 - -
30/09:30am 26.1 - - - - ESE 35 41 19 22 1006.4 - -
30/09:29am 25.9 - - - - ESE 35 - 19 - - 1006.6 -
30/09:00am 25.0 - - - - E 33 41 18 22 1006.4 - -
30/08:55am 25.3 - - - - ESE 35 54 19 29 1006.3 - -
30/08:30am 26.3 - - - - SE 32 44 17 24 1006.4 - -
30/08:29am 26.7 - - - - SE 30 - 16 - - 1006.6 -
30/08:00am 26.6 - - - - SE 41 48 22 26 1006.2 - -
30/07:30am 27.4 - - - - SE 37 41 20 22 1005.8 - -
30/07:29am 27.4 - - - - SE 35 - 19 - - 1006.0 -
30/07:00am 27.4 - - - - SE 37 43 20 23 1005.5 - -
30/06:30am 27.2 - - - - SE 37 43 20 23 1005.2 - -
30/06:29am 27.4 - - - - SE 37 41 20 22 1005.2 1005.4 -
30/06:00am 25.7 - - - - SE 39 54 21 29 1004.7 - -
30/05:54am 26.6 - - - - SE 30 54 16 29 1004.6 - -
30/05:30am 25.8 - - - - ESE 24 28 13 15 1004.4 - -
30/05:29am 25.8 - - - - ESE 24 - 13 - - 1004.6 -
30/05:00am 26.0 - - - - E 24 28 13 15 1003.9 - -
30/04:30am 26.0 - - - - ESE 24 28 13 15 1004.1 - -
30/04:29am 26.2 - - - - ESE 24 - 13 - - 1004.3 -
30/04:00am 25.8 - - - - E 30 33 16 18 1004.2 - -
30/03:30am 26.2 - - - - E 24 28 13 15 1004.5 - -
30/03:29am 26.4 - - - - E 24 - 13 - - 1004.7 -
30/03:00am 26.4 - - - - E 24 30 13 16 1004.7 - -
30/02:30am 26.3 - - - - ESE 32 35 17 19 1004.6 - -
30/02:29am 26.3 - - - - ESE 32 - 17 - - 1004.8 -
30/02:00am 25.9 - - - - E 28 33 15 18 1004.9 - -
30/01:30am 25.4 - - - - E 30 35 16 19 1005.3 - -
30/01:29am 25.4 - - - - E 30 - 16 - - 1005.5 -
30/01:00am 25.0 - - - - E 30 33 16 18 1005.6 - -
30/12:30am 25.4 - - - - E 30 35 16 19 1005.8 - -
30/12:29am 25.4 - - - - E 30 - 16 - - 1006.0 -
30/12:00am 25.0 - - - - E 30 33 16 18 1006.2 - -
 
Date/Time
EST
Temp
°C
App
Temp
°C
Dew
Point
Rel
Hum
%
Delta-T
°C
Wind Press
QNH
hPa
Press
MSL
hPa
Rain
since 9 am
mm
Dir
 
Spd
km/h
Gust
km/h
Spd
kts
Gust
kts
29/11:30pm 24.6 - - - - ESE 30 33 16 18 1006.5 - -
29/11:29pm 24.8 - - - - ESE 30 - 16 - - 1006.7 -
29/11:00pm 24.7 - - - - ESE 32 35 17 19 1006.8 - -
29/10:30pm 23.8 - - - - SE 26 32 14 17 1007.2 - -
29/10:29pm 23.8 - - - - SE 26 - 14 - - 1007.4 -
29/10:00pm 24.1 - - - - SE 32 54 17 29 1007.1 - -
29/09:59pm 24.7 - - - - SE 30 54 16 29 1007.3 - -
29/09:30pm 24.6 - - - - E 20 24 11 13 1007.2 - -
29/09:29pm 24.6 - - - - E 20 - 11 - - 1007.4 -
29/09:00pm 24.4 - - - - ESE 13 17 7 9 1006.8 - -
29/08:30pm 24.4 - - - - ESE 17 19 9 10 1006.7 - -
29/08:29pm 24.4 - - - - ESE 17 - 9 - - 1006.8 -
29/08:00pm 23.8 - - - - E 19 24 10 13 1006.3 - -
29/07:30pm 23.3 - - - - E 22 28 12 15 1006.3 - -
29/07:29pm 23.0 - - - - E 22 22 12 12 1006.3 1006.5 -
29/07:00pm 23.8 - - - - E 19 28 10 15 1006.0 - -
29/06:30pm 23.9 - - - - E 20 26 11 14 1005.4 - -
29/06:29pm 23.9 - - - - E 20 - 11 - - 1005.6 -
29/06:00pm 23.9 - - - - E 30 33 16 18 1004.9 - -
29/05:30pm 23.6 - - - - ESE 24 30 13 16 1004.8 - -
29/05:29pm 23.5 - - - - ESE 24 - 13 - - 1005.0 -
29/05:00pm 23.8 - - - - SE 19 20 10 11 1004.3 - -
29/04:30pm 24.9 - - - - ESE 19 24 10 13 1003.8 - -
29/04:29pm 25.2 - - - - ESE 19 - 10 - - 1004.0 -
29/04:00pm 26.2 - - - - ESE 26 30 14 16 1003.3 - -
29/03:30pm 25.9 - - - - E 30 33 16 18 1002.8 - -
29/03:29pm 25.9 - - - - E 30 - 16 - - 1003.0 -
29/03:00pm 26.1 - - - - ESE 33 37 18 20 1003.1 - -
29/02:30pm 26.3 - - - - ESE 33 37 18 20 1003.3 - -
29/02:29pm 26.3 - - - - ESE 33 - 18 - - 1003.5 -
29/02:00pm 26.6 - - - - ESE 30 33 16 18 1003.2 - -
29/01:30pm 26.4 - - - - ESE 37 43 20 23 1003.4 - -
29/01:29pm 26.3 - - - - ESE 37 - 20 - - 1003.6 -
29/01:00pm 27.4 - - - - SE 35 43 19 23 1003.7 - -
29/12:30pm 27.0 - - - - SE 35 41 19 22 1003.8 - -
29/12:29pm 26.9 - - - - SE 35 - 19 - - 1004.0 -
29/12:00pm 27.2 - - - - SE 35 41 19 22 1004.0 - -
29/11:30am 27.6 - - - - SE 32 35 17 19 1004.2 - -
29/11:29am 27.8 - - - - SE 32 - 17 - - 1004.4 -
29/11:00am 28.2 - - - - SE 30 33 16 18 1004.2 - -
29/10:30am 28.0 - - - - SE 32 35 17 19 1004.2 - -
29/10:29am 27.9 - - - - SE 32 - 17 - - 1004.4 -
29/10:00am 27.7 - - - - SE 32 33 17 18 1004.3 - -
29/09:30am 27.6 - - - - SE 33 37 18 20 1004.1 - -
29/09:29am 27.7 - - - - SE 32 - 17 - - 1004.3 -
29/09:00am 27.7 - - - - SE 26 30 14 16 1004.2 - -
29/08:30am 28.0 - - - - ESE 26 30 14 16 1004.2 - -
29/08:29am 27.9 - - - - ESE 26 - 14 - - 1004.4 -
29/08:00am 27.8 - - - - ESE 26 32 14 17 1004.0 - -
29/07:30am 27.7 - - - - ESE 30 33 16 18 1003.5 - -
29/07:29am 27.8 - - - - ESE 30 - 16 - - 1003.7 -
29/07:00am 27.7 - - - - ESE 32 35 17 19 1003.5 - -
29/06:30am 27.6 - - - - ESE 32 35 17 19 1003.5 - -
29/06:29am 27.6 - - - - ESE 32 - 17 - - 1003.7 -
29/06:00am 27.5 - - - - ESE 30 33 16 18 1002.9 - -
29/05:30am 27.4 - - - - ESE 30 35 16 19 1002.7 - -
29/05:29am 27.5 - - - - ESE 30 - 16 - - 1002.9 -
29/05:00am 27.5 - - - - ESE 30 32 16 17 1002.5 - -
29/04:30am 27.3 - - - - ESE 28 32 15 17 1002.3 - -
29/04:29am 27.3 - - - - ESE 28 - 15 - - 1002.5 -
29/04:00am 26.9 - - - - ESE 30 35 16 19 1002.0 - -
29/03:30am 26.9 - - - - ESE 26 30 14 16 1002.0 - -
29/03:29am 27.1 - - - - ESE 26 - 14 - - 1002.1 -
29/03:00am 26.9 - - - - E 28 32 15 17 1001.7 - -
29/02:30am 26.5 - - - - E 28 32 15 17 1001.7 - -
29/02:29am 26.5 - - - - E 28 - 15 - - 1001.9 -
29/02:00am 26.9 - - - - E 26 32 14 17 1002.1 - -
29/01:30am 27.1 - - - - E 26 32 14 17 1002.6 - -
29/01:29am 27.0 - - - - E 28 - 15 - - 1002.8 -
29/01:00am 26.5 - - - - E 30 35 16 19 1002.7 - -
29/12:30am 26.4 - - - - E 32 41 17 22 1002.9 - -
29/12:29am 26.5 - - - - E 30 - 16 - - 1003.0 -
29/12:00am 26.0 - - - - ENE 30 35 16 19 1003.3 - -
 
Date/Time
EST
Temp
°C
App
Temp
°C
Dew
Point
Rel
Hum
%
Delta-T
°C
Wind Press
QNH
hPa
Press
MSL
hPa
Rain
since 9 am
mm
Dir
 
Spd
km/h
Gust
km/h
Spd
kts
Gust
kts
28/11:30pm 26.0 - - - - E 32 39 17 21 1003.6 - -
28/11:29pm 26.0 - - - - E 33 - 18 - - 1003.8 -
28/11:00pm 25.5 - - - - E 30 35 16 19 1003.8 - -
28/10:30pm 26.3 - - - - ESE 33 39 18 21 1003.9 - -
28/10:29pm 26.2 - - - - ESE 33 - 18 - - 1004.0 -
28/10:00pm 26.2 - - - - ESE 33 39 18 21 1003.9 - -
28/09:30pm 26.5 - - - - ESE 33 37 18 20 1003.9 - -
28/09:29pm 26.5 - - - - ESE 33 - 18 - - 1004.1 -
28/09:00pm 27.0 - - - - ESE 35 41 19 22 1003.6 - -
28/08:30pm 26.7 - - - - ESE 39 43 21 23 1003.5 - -
28/08:29pm 26.9 - - - - ESE 37 - 20 - - 1003.7 -
28/08:00pm 25.8 - - - - SE 35 43 19 23 1003.2 - -
28/07:30pm 25.5 - - - - ESE 24 35 13 19 1003.0 - -
28/07:29pm 25.4 - - - - ESE 24 - 13 - - 1003.2 -
28/07:00pm 24.6 - - - - SSE 26 37 14 20 1002.7 - -
28/06:30pm 25.7 - - - - SE 24 30 13 16 1002.5 - -
28/06:29pm 25.6 - - - - SE 24 - 13 - - 1002.7 -
28/06:00pm 24.7 - - - - SE 37 44 20 24 1001.7 - -
28/05:30pm 26.3 - - - - ESE 33 37 18 20 1001.4 - -
28/05:29pm 26.3 - - - - ESE 33 - 18 - - 1001.6 -
28/05:00pm 26.2 - - - - SE 30 33 16 18 1001.0 - -
28/04:30pm 26.1 - - - - SE 33 35 18 19 1000.6 - -
28/04:29pm 26.3 - - - - SE 33 - 18 - - 1000.8 -
28/04:00pm 26.4 - - - - ESE 35 39 19 21 1000.4 - -
28/03:30pm 26.3 - - - - ESE 33 37 18 20 1000.5 - -
28/03:29pm 26.1 - - - - ESE 33 - 18 - - 1000.7 -
28/03:00pm 26.5 - - - - ESE 32 35 17 19 1000.6 - -
28/02:30pm 26.8 - - - - ESE 28 32 15 17 1000.9 - -
28/02:29pm 26.9 - - - - ESE 28 - 15 - - 1001.1 -
28/02:00pm 27.0 - - - - ESE 28 32 15 17 1000.5 - -
28/01:30pm 26.1 - - - - ESE 26 28 14 15 1000.8 - -
28/01:29pm 25.9 - - - - ESE 26 - 14 - - 1001.0 -
28/01:00pm 26.9 - - - - ESE 24 26 13 14 1001.1 - -
28/12:30pm 26.1 - - - - ESE 28 30 15 16 1001.4 - -
28/12:29pm 26.1 - - - - ESE 28 - 15 - - 1001.7 -
28/12:00pm 26.3 - - - - ESE 32 35 17 19 1001.8 - -
28/11:30am 26.5 - - - - ESE 32 39 17 21 1002.0 - -
28/11:29am 26.6 - - - - ESE 32 - 17 - - 1002.3 -
28/11:00am 27.3 - - - - ESE 20 26 11 14 1002.0 - -
28/10:30am 27.5 - - - - ENE 26 30 14 16 1001.8 - -
28/10:29am 27.6 - - - - ENE 26 - 14 - - 1002.0 -
28/10:00am 27.5 - - - - ESE 24 30 13 16 1002.0 - -
28/09:30am 28.2 - - - - E 28 33 15 18 1001.9 - -
28/09:29am 28.2 - - - - E 28 - 15 - - 1002.2 -
28/09:00am 27.9 - - - - E 26 28 14 15 1002.1 - -
28/08:30am 26.7 - - - - ENE 30 35 16 19 1002.0 - -
28/08:29am 26.7 - - - - ENE 30 - 16 - - 1002.2 -
28/08:00am 26.2 - - - - ENE 33 35 18 19 1001.9 - -
28/07:30am 26.4 - - - - ENE 33 39 18 21 1001.8 - -
28/07:29am 26.5 - - - - ENE 33 - 18 - - 1002.0 -
28/07:00am 26.6 - - - - E 33 35 18 19 1001.7 - -
28/06:30am 27.2 - - - - E 30 35 16 19 1001.5 - -
28/06:29am 27.3 - - - - E 30 - 16 - - 1001.7 -
28/06:00am 26.9 - - - - E 24 28 13 15 1001.3 - -
28/05:30am 26.7 - - - - ENE 26 32 14 17 1000.8 - -
28/05:29am 26.6 - - - - ENE 28 - 15 - - 1001.0 -
28/05:00am 27.3 - - - - ESE 33 35 18 19 1000.3 - -
28/04:30am 27.4 - - - - ESE 32 35 17 19 1000.2 - -
28/04:29am 27.5 - - - - ESE 32 - 17 - - 1000.4 -
28/04:00am 27.4 - - - - ESE 30 35 16 19 1000.2 - -
28/03:30am 27.4 - - - - ESE 30 33 16 18 1000.3 - -
28/03:29am 27.3 - - - - ESE 30 - 16 - - 1000.5 -
28/03:00am 26.9 - - - - ESE 30 35 16 19 1000.5 - -
28/02:30am 26.5 - - - - SE 32 35 17 19 1000.7 - -
28/02:29am 26.2 - - - - SE 32 - 17 - - 1000.9 -
28/02:00am 26.4 - - - - ESE 32 35 17 19 1000.9 - -
28/01:30am 27.3 - - - - E 28 33 15 18 1001.3 - -
28/01:29am 27.3 - - - - E 28 - 15 - - 1001.6 -
28/01:00am 27.5 - - - - E 30 32 16 17 1001.6 - -
28/12:30am 27.0 - - - - ESE 20 28 11 15 1002.1 - -
28/12:29am 27.0 - - - - ESE 20 - 11 - - 1002.3 -
28/12:00am 26.3 - - - - ESE 28 33 15 18 1002.3 - -
 
Date/Time
EST
Temp
°C
App
Temp
°C
Dew
Point
Rel
Hum
%
Delta-T
°C
Wind Press
QNH
hPa
Press
MSL
hPa
Rain
since 9 am
mm
Dir
 
Spd
km/h
Gust
km/h
Spd
kts
Gust
kts
27/11:30pm 25.2 - - - - ESE 30 35 16 19 1002.6 - -
27/11:29pm 25.3 - - - - ESE 30 - 16 - - 1002.8 -
27/11:00pm 25.1 - - - - ESE 33 37 18 20 1003.1 - -
27/10:30pm 25.9 - - - - ESE 37 44 20 24 1003.3 - -
27/10:29pm 26.0 - - - - ESE 35 - 19 - - 1003.5 -
27/10:00pm 27.2 - - - - ESE 32 37 17 20 1003.4 - -
27/09:30pm 27.3 - - - - ESE 22 26 12 14 1003.4 - -
27/09:29pm 27.3 - - - - ESE 22 - 12 - - 1003.6 -
27/09:00pm 26.7 - - - - ESE 33 41 18 22 1003.4 - -
27/08:30pm 27.6 - - - - ESE 26 32 14 17 1002.9 - -
27/08:29pm 27.5 - - - - ESE 26 - 14 - - 1003.2 -
27/08:00pm 27.4 - - - - ESE 28 33 15 18 1002.7 - -
27/07:30pm 27.3 - - - - ESE 33 39 18 21 1002.0 - -
27/07:29pm 27.3 - - - - ESE 32 - 17 - - 1002.1 -
27/07:00pm 27.9 - - - - E 28 32 15 17 1002.2 - -
27/06:30pm 28.0 - - - - E 28 30 15 16 1001.9 - -
27/06:29pm 28.2 - - - - E 28 - 15 - - 1002.1 -
27/06:00pm 28.2 - - - - E 24 28 13 15 1001.5 - -

Other Formats:

Comma delimited format used in spreadsheet applications
http://www.bom.gov.au/fwo/IDQ60801/IDQ60801.94379.axf

JavaScript Object Notation format (JSON) in row-major order
http://www.bom.gov.au/fwo/IDQ60801/IDQ60801.94379.json